sensor_id;sensor_type;location;lat;lon;timestamp;temperature;humidity
31038;DHT22;17702;47.590;7.666;2023-02-28T00:00:12;3.40;61.30
31038;DHT22;17702;47.590;7.666;2023-02-28T00:02:38;3.40;62.60
31038;DHT22;17702;47.590;7.666;2023-02-28T00:05:04;3.40;61.30
31038;DHT22;17702;47.590;7.666;2023-02-28T00:07:30;3.40;61.30
31038;DHT22;17702;47.590;7.666;2023-02-28T00:09:56;3.40;61.30
31038;DHT22;17702;47.590;7.666;2023-02-28T00:12:21;3.40;61.20
31038;DHT22;17702;47.590;7.666;2023-02-28T00:14:47;3.40;60.30
31038;DHT22;17702;47.590;7.666;2023-02-28T00:17:12;3.30;61.70
31038;DHT22;17702;47.590;7.666;2023-02-28T00:19:38;3.30;62.00
31038;DHT22;17702;47.590;7.666;2023-02-28T00:22:03;3.40;61.30
31038;DHT22;17702;47.590;7.666;2023-02-28T00:24:29;3.40;63.10
31038;DHT22;17702;47.590;7.666;2023-02-28T00:26:54;3.30;61.50
31038;DHT22;17702;47.590;7.666;2023-02-28T00:29:19;3.30;60.30
31038;DHT22;17702;47.590;7.666;2023-02-28T00:31:45;3.40;62.40
31038;DHT22;17702;47.590;7.666;2023-02-28T00:34:10;3.40;62.20
31038;DHT22;17702;47.590;7.666;2023-02-28T00:36:36;3.40;62.90
31038;DHT22;17702;47.590;7.666;2023-02-28T00:39:04;3.40;63.20
31038;DHT22;17702;47.590;7.666;2023-02-28T00:41:30;3.40;61.90
31038;DHT22;17702;47.590;7.666;2023-02-28T00:43:55;3.40;62.30
31038;DHT22;17702;47.590;7.666;2023-02-28T00:46:21;3.40;63.20
31038;DHT22;17702;47.590;7.666;2023-02-28T00:48:46;3.30;63.70
31038;DHT22;17702;47.590;7.666;2023-02-28T00:51:11;3.40;63.60
31038;DHT22;17702;47.590;7.666;2023-02-28T00:53:37;3.40;63.40
31038;DHT22;17702;47.590;7.666;2023-02-28T00:56:02;3.30;64.00
31038;DHT22;17702;47.590;7.666;2023-02-28T00:58:28;3.30;64.50
31038;DHT22;17702;47.590;7.666;2023-02-28T01:00:54;3.30;63.40
31038;DHT22;17702;47.590;7.666;2023-02-28T01:03:20;3.30;63.40
31038;DHT22;17702;47.590;7.666;2023-02-28T01:05:45;3.30;63.00
31038;DHT22;17702;47.590;7.666;2023-02-28T01:08:11;3.30;63.70
31038;DHT22;17702;47.590;7.666;2023-02-28T01:10:37;3.30;63.30
31038;DHT22;17702;47.590;7.666;2023-02-28T01:13:03;3.30;63.70
31038;DHT22;17702;47.590;7.666;2023-02-28T01:15:29;3.20;63.10
31038;DHT22;17702;47.590;7.666;2023-02-28T01:17:54;3.30;64.10
31038;DHT22;17702;47.590;7.666;2023-02-28T01:20:19;3.30;63.90
31038;DHT22;17702;47.590;7.666;2023-02-28T01:22:51;3.30;63.80
31038;DHT22;17702;47.590;7.666;2023-02-28T01:25:16;3.30;63.80
31038;DHT22;17702;47.590;7.666;2023-02-28T01:27:42;3.30;64.00
31038;DHT22;17702;47.590;7.666;2023-02-28T01:30:08;3.30;63.90
31038;DHT22;17702;47.590;7.666;2023-02-28T01:35:34;3.30;64.70
31038;DHT22;17702;47.590;7.666;2023-02-28T01:37:59;3.40;64.10
31038;DHT22;17702;47.590;7.666;2023-02-28T01:40:25;3.40;63.90
31038;DHT22;17702;47.590;7.666;2023-02-28T01:42:50;3.40;63.50
31038;DHT22;17702;47.590;7.666;2023-02-28T01:45:22;3.40;63.70
31038;DHT22;17702;47.590;7.666;2023-02-28T01:47:48;3.40;65.00
31038;DHT22;17702;47.590;7.666;2023-02-28T01:50:16;3.40;64.00
31038;DHT22;17702;47.590;7.666;2023-02-28T01:52:43;3.40;64.60
31038;DHT22;17702;47.590;7.666;2023-02-28T01:55:09;3.50;64.90
31038;DHT22;17702;47.590;7.666;2023-02-28T01:57:38;3.60;64.20
31038;DHT22;17702;47.590;7.666;2023-02-28T02:00:12;3.60;63.40
31038;DHT22;17702;47.590;7.666;2023-02-28T02:02:40;3.60;63.00
31038;DHT22;17702;47.590;7.666;2023-02-28T02:05:08;3.60;63.30
31038;DHT22;17702;47.590;7.666;2023-02-28T02:07:36;3.70;63.40
31038;DHT22;17702;47.590;7.666;2023-02-28T02:18:36;3.40;65.40
31038;DHT22;17702;47.590;7.666;2023-02-28T02:29:10;3.30;65.10
31038;DHT22;17702;47.590;7.666;2023-02-28T02:32:01;3.30;65.60
31038;DHT22;17702;47.590;7.666;2023-02-28T02:37:11;3.20;65.10
31038;DHT22;17702;47.590;7.666;2023-02-28T02:42:16;3.30;65.60
31038;DHT22;17702;47.590;7.666;2023-02-28T02:45:00;3.30;65.70
31038;DHT22;17702;47.590;7.666;2023-02-28T02:47:28;3.30;64.60
31038;DHT22;17702;47.590;7.666;2023-02-28T02:49:55;3.30;65.50
31038;DHT22;17702;47.590;7.666;2023-02-28T02:52:24;3.30;66.00
31038;DHT22;17702;47.590;7.666;2023-02-28T02:54:52;3.30;64.80
31038;DHT22;17702;47.590;7.666;2023-02-28T02:57:21;3.30;66.30
31038;DHT22;17702;47.590;7.666;2023-02-28T02:59:48;3.30;65.80
31038;DHT22;17702;47.590;7.666;2023-02-28T03:02:14;3.30;66.20
31038;DHT22;17702;47.590;7.666;2023-02-28T03:04:46;3.20;65.90
31038;DHT22;17702;47.590;7.666;2023-02-28T03:07:13;3.20;66.10
31038;DHT22;17702;47.590;7.666;2023-02-28T03:09:39;3.20;65.70
31038;DHT22;17702;47.590;7.666;2023-02-28T03:12:04;3.20;67.00
31038;DHT22;17702;47.590;7.666;2023-02-28T03:19:57;3.40;66.90
31038;DHT22;17702;47.590;7.666;2023-02-28T03:30:49;3.20;67.80
31038;DHT22;17702;47.590;7.666;2023-02-28T03:35:16;3.30;68.30
31038;DHT22;17702;47.590;7.666;2023-02-28T03:37:48;3.30;68.80
31038;DHT22;17702;47.590;7.666;2023-02-28T03:40:15;3.40;66.80
31038;DHT22;17702;47.590;7.666;2023-02-28T03:42:43;3.40;67.90
31038;DHT22;17702;47.590;7.666;2023-02-28T03:45:16;3.40;68.40
31038;DHT22;17702;47.590;7.666;2023-02-28T03:47:53;3.30;69.30
31038;DHT22;17702;47.590;7.666;2023-02-28T03:50:23;3.30;69.00
31038;DHT22;17702;47.590;7.666;2023-02-28T03:52:50;3.30;70.20
31038;DHT22;17702;47.590;7.666;2023-02-28T03:55:16;3.40;69.70
31038;DHT22;17702;47.590;7.666;2023-02-28T04:00:10;3.30;71.60
31038;DHT22;17702;47.590;7.666;2023-02-28T04:02:37;3.20;73.70
31038;DHT22;17702;47.590;7.666;2023-02-28T04:05:05;3.20;74.60
31038;DHT22;17702;47.590;7.666;2023-02-28T04:07:30;3.10;76.70
31038;DHT22;17702;47.590;7.666;2023-02-28T04:09:56;3.10;78.60
31038;DHT22;17702;47.590;7.666;2023-02-28T04:12:22;3.20;79.60
31038;DHT22;17702;47.590;7.666;2023-02-28T04:14:48;3.10;81.20
31038;DHT22;17702;47.590;7.666;2023-02-28T04:17:14;3.00;83.40
31038;DHT22;17702;47.590;7.666;2023-02-28T04:19:39;3.00;85.70
31038;DHT22;17702;47.590;7.666;2023-02-28T04:22:05;2.90;86.80
31038;DHT22;17702;47.590;7.666;2023-02-28T04:24:30;2.90;89.20
31038;DHT22;17702;47.590;7.666;2023-02-28T04:26:56;2.80;90.60
31038;DHT22;17702;47.590;7.666;2023-02-28T04:29:26;2.70;91.50
31038;DHT22;17702;47.590;7.666;2023-02-28T04:31:52;2.70;92.30
31038;DHT22;17702;47.590;7.666;2023-02-28T04:34:19;2.70;93.10
31038;DHT22;17702;47.590;7.666;2023-02-28T04:36:44;2.70;93.90
31038;DHT22;17702;47.590;7.666;2023-02-28T04:39:11;2.70;93.90
31038;DHT22;17702;47.590;7.666;2023-02-28T04:41:37;2.80;94.10
31038;DHT22;17702;47.590;7.666;2023-02-28T04:44:03;2.80;94.50
31038;DHT22;17702;47.590;7.666;2023-02-28T04:46:28;2.90;94.90
31038;DHT22;17702;47.590;7.666;2023-02-28T04:48:54;2.90;94.80
31038;DHT22;17702;47.590;7.666;2023-02-28T04:51:19;2.80;95.20
31038;DHT22;17702;47.590;7.666;2023-02-28T04:53:46;2.80;95.90
31038;DHT22;17702;47.590;7.666;2023-02-28T04:56:12;2.60;96.90
31038;DHT22;17702;47.590;7.666;2023-02-28T04:58:38;2.50;97.50
31038;DHT22;17702;47.590;7.666;2023-02-28T05:01:05;2.50;97.80
31038;DHT22;17702;47.590;7.666;2023-02-28T05:03:38;2.50;98.40
31038;DHT22;17702;47.590;7.666;2023-02-28T05:06:06;2.50;99.40
31038;DHT22;17702;47.590;7.666;2023-02-28T05:08:31;2.50;99.50
31038;DHT22;17702;47.590;7.666;2023-02-28T05:10:57;2.50;99.60
31038;DHT22;17702;47.590;7.666;2023-02-28T05:13:22;2.50;99.80
31038;DHT22;17702;47.590;7.666;2023-02-28T05:15:48;2.40;99.90
31038;DHT22;17702;47.590;7.666;2023-02-28T05:18:13;2.40;99.90
31038;DHT22;17702;47.590;7.666;2023-02-28T05:20:39;2.40;99.90
31038;DHT22;17702;47.590;7.666;2023-02-28T05:23:04;2.50;99.90
31038;DHT22;17702;47.590;7.666;2023-02-28T05:25:30;2.50;99.90
31038;DHT22;17702;47.590;7.666;2023-02-28T05:27:55;2.60;99.90
31038;DHT22;17702;47.590;7.666;2023-02-28T05:30:21;2.60;99.90
31038;DHT22;17702;47.590;7.666;2023-02-28T05:32:49;2.60;99.90
31038;DHT22;17702;47.590;7.666;2023-02-28T05:35:15;2.60;99.90
31038;DHT22;17702;47.590;7.666;2023-02-28T05:37:41;2.60;99.90
31038;DHT22;17702;47.590;7.666;2023-02-28T05:40:07;2.50;99.90
31038;DHT22;17702;47.590;7.666;2023-02-28T05:42:35;2.40;99.90
31038;DHT22;17702;47.590;7.666;2023-02-28T05:45:01;2.30;99.90
31038;DHT22;17702;47.590;7.666;2023-02-28T05:47:27;2.30;99.90
31038;DHT22;17702;47.590;7.666;2023-02-28T05:49:53;2.30;99.90
31038;DHT22;17702;47.590;7.666;2023-02-28T05:52:18;2.30;99.90
31038;DHT22;17702;47.590;7.666;2023-02-28T05:54:44;2.30;99.90
31038;DHT22;17702;47.590;7.666;2023-02-28T05:57:11;2.20;99.90
31038;DHT22;17702;47.590;7.666;2023-02-28T05:59:36;2.20;99.90
31038;DHT22;17702;47.590;7.666;2023-02-28T06:02:14;2.20;99.90
31038;DHT22;17702;47.590;7.666;2023-02-28T06:04:40;2.20;99.90
31038;DHT22;17702;47.590;7.666;2023-02-28T06:07:06;2.10;99.90
31038;DHT22;17702;47.590;7.666;2023-02-28T06:09:32;2.20;99.90
31038;DHT22;17702;47.590;7.666;2023-02-28T06:11:58;2.20;99.90
31038;DHT22;17702;47.590;7.666;2023-02-28T06:14:24;2.30;99.90
31038;DHT22;17702;47.590;7.666;2023-02-28T06:16:50;2.20;99.90
31038;DHT22;17702;47.590;7.666;2023-02-28T06:19:15;2.10;99.90
31038;DHT22;17702;47.590;7.666;2023-02-28T06:21:41;2.10;99.90
31038;DHT22;17702;47.590;7.666;2023-02-28T06:24:07;2.10;99.90
31038;DHT22;17702;47.590;7.666;2023-02-28T06:26:32;2.10;99.90
31038;DHT22;17702;47.590;7.666;2023-02-28T06:28:58;2.20;99.90
31038;DHT22;17702;47.590;7.666;2023-02-28T06:31:23;2.20;99.90
31038;DHT22;17702;47.590;7.666;2023-02-28T06:33:51;2.20;99.90
31038;DHT22;17702;47.590;7.666;2023-02-28T06:36:17;2.20;99.90
31038;DHT22;17702;47.590;7.666;2023-02-28T06:38:43;2.30;99.90
31038;DHT22;17702;47.590;7.666;2023-02-28T06:41:09;2.30;99.90
31038;DHT22;17702;47.590;7.666;2023-02-28T06:43:35;2.20;99.90
31038;DHT22;17702;47.590;7.666;2023-02-28T06:46:03;2.20;99.90
31038;DHT22;17702;47.590;7.666;2023-02-28T06:48:28;2.10;99.90
31038;DHT22;17702;47.590;7.666;2023-02-28T06:51:04;2.10;99.90
31038;DHT22;17702;47.590;7.666;2023-02-28T06:53:30;2.20;99.90
31038;DHT22;17702;47.590;7.666;2023-02-28T06:55:56;2.30;99.90
31038;DHT22;17702;47.590;7.666;2023-02-28T06:58:22;2.40;99.90
31038;DHT22;17702;47.590;7.666;2023-02-28T07:00:50;2.40;99.90
31038;DHT22;17702;47.590;7.666;2023-02-28T07:03:15;2.40;99.90
31038;DHT22;17702;47.590;7.666;2023-02-28T07:05:41;2.40;99.90
31038;DHT22;17702;47.590;7.666;2023-02-28T07:08:06;2.40;99.90
31038;DHT22;17702;47.590;7.666;2023-02-28T07:10:32;2.40;99.90
31038;DHT22;17702;47.590;7.666;2023-02-28T07:12:58;2.30;99.90
31038;DHT22;17702;47.590;7.666;2023-02-28T07:15:24;2.30;99.90
31038;DHT22;17702;47.590;7.666;2023-02-28T07:17:49;2.30;99.90
31038;DHT22;17702;47.590;7.666;2023-02-28T07:20:15;2.40;99.90
31038;DHT22;17702;47.590;7.666;2023-02-28T07:22:41;2.30;99.90
31038;DHT22;17702;47.590;7.666;2023-02-28T07:25:07;2.30;99.90
31038;DHT22;17702;47.590;7.666;2023-02-28T07:27:33;2.30;99.90
31038;DHT22;17702;47.590;7.666;2023-02-28T07:29:59;2.40;99.90
31038;DHT22;17702;47.590;7.666;2023-02-28T07:32:27;2.40;99.90
31038;DHT22;17702;47.590;7.666;2023-02-28T07:34:53;2.40;99.90
31038;DHT22;17702;47.590;7.666;2023-02-28T07:37:18;2.40;99.90
31038;DHT22;17702;47.590;7.666;2023-02-28T07:39:44;2.30;99.90
31038;DHT22;17702;47.590;7.666;2023-02-28T07:42:09;2.30;99.90
31038;DHT22;17702;47.590;7.666;2023-02-28T07:44:37;2.40;99.90
31038;DHT22;17702;47.590;7.666;2023-02-28T07:47:06;2.40;99.90
31038;DHT22;17702;47.590;7.666;2023-02-28T07:49:32;2.50;99.90
31038;DHT22;17702;47.590;7.666;2023-02-28T07:51:57;2.50;99.90
31038;DHT22;17702;47.590;7.666;2023-02-28T07:54:23;2.50;99.90
31038;DHT22;17702;47.590;7.666;2023-02-28T07:56:48;2.60;99.90
31038;DHT22;17702;47.590;7.666;2023-02-28T07:59:14;2.60;99.90
31038;DHT22;17702;47.590;7.666;2023-02-28T08:01:39;2.50;99.90
31038;DHT22;17702;47.590;7.666;2023-02-28T08:04:05;2.30;99.90
31038;DHT22;17702;47.590;7.666;2023-02-28T08:06:30;2.30;99.90
31038;DHT22;17702;47.590;7.666;2023-02-28T08:08:56;2.30;99.90
31038;DHT22;17702;47.590;7.666;2023-02-28T08:11:21;2.30;99.90
31038;DHT22;17702;47.590;7.666;2023-02-28T08:13:47;2.50;99.90
31038;DHT22;17702;47.590;7.666;2023-02-28T08:16:13;2.60;99.90
31038;DHT22;17702;47.590;7.666;2023-02-28T08:18:47;2.70;99.90
31038;DHT22;17702;47.590;7.666;2023-02-28T08:21:13;2.60;99.90
31038;DHT22;17702;47.590;7.666;2023-02-28T08:23:38;2.60;99.90
31038;DHT22;17702;47.590;7.666;2023-02-28T08:26:04;2.60;99.90
31038;DHT22;17702;47.590;7.666;2023-02-28T08:28:29;2.70;99.90
31038;DHT22;17702;47.590;7.666;2023-02-28T08:30:55;2.70;99.90
31038;DHT22;17702;47.590;7.666;2023-02-28T08:33:21;2.50;99.90
31038;DHT22;17702;47.590;7.666;2023-02-28T08:35:46;2.40;99.90
31038;DHT22;17702;47.590;7.666;2023-02-28T08:38:12;2.30;99.90
31038;DHT22;17702;47.590;7.666;2023-02-28T08:40:38;2.40;99.90
31038;DHT22;17702;47.590;7.666;2023-02-28T08:43:04;2.40;99.90
31038;DHT22;17702;47.590;7.666;2023-02-28T08:45:31;2.50;99.90
31038;DHT22;17702;47.590;7.666;2023-02-28T08:47:57;2.60;99.90
31038;DHT22;17702;47.590;7.666;2023-02-28T08:50:22;2.60;99.90
31038;DHT22;17702;47.590;7.666;2023-02-28T08:52:48;2.70;99.90
31038;DHT22;17702;47.590;7.666;2023-02-28T08:55:13;2.70;99.90
31038;DHT22;17702;47.590;7.666;2023-02-28T08:57:39;2.60;99.90
31038;DHT22;17702;47.590;7.666;2023-02-28T09:00:04;2.70;99.90
31038;DHT22;17702;47.590;7.666;2023-02-28T09:02:30;2.70;99.90
31038;DHT22;17702;47.590;7.666;2023-02-28T09:04:56;2.60;99.90
31038;DHT22;17702;47.590;7.666;2023-02-28T09:07:22;2.70;99.90
31038;DHT22;17702;47.590;7.666;2023-02-28T09:09:47;2.90;99.90
31038;DHT22;17702;47.590;7.666;2023-02-28T09:12:22;2.90;99.90
31038;DHT22;17702;47.590;7.666;2023-02-28T09:14:48;2.90;99.90
31038;DHT22;17702;47.590;7.666;2023-02-28T09:17:13;3.00;99.90
31038;DHT22;17702;47.590;7.666;2023-02-28T09:19:39;3.00;99.90
31038;DHT22;17702;47.590;7.666;2023-02-28T09:22:04;3.00;99.90
31038;DHT22;17702;47.590;7.666;2023-02-28T09:24:30;2.90;99.90
31038;DHT22;17702;47.590;7.666;2023-02-28T09:26:56;2.90;99.90
31038;DHT22;17702;47.590;7.666;2023-02-28T09:29:22;3.00;99.90
31038;DHT22;17702;47.590;7.666;2023-02-28T09:31:47;3.00;99.90
31038;DHT22;17702;47.590;7.666;2023-02-28T09:34:13;3.00;99.90
31038;DHT22;17702;47.590;7.666;2023-02-28T09:36:38;3.10;99.50
31038;DHT22;17702;47.590;7.666;2023-02-28T09:39:04;3.10;99.90
31038;DHT22;17702;47.590;7.666;2023-02-28T09:41:32;3.20;99.90
31038;DHT22;17702;47.590;7.666;2023-02-28T09:44:02;3.30;99.90
31038;DHT22;17702;47.590;7.666;2023-02-28T09:48:58;3.30;99.90
31038;DHT22;17702;47.590;7.666;2023-02-28T09:51:40;3.30;99.90
31038;DHT22;17702;47.590;7.666;2023-02-28T09:54:13;3.40;99.60
31038;DHT22;17702;47.590;7.666;2023-02-28T09:56:39;3.50;99.80
31038;DHT22;17702;47.590;7.666;2023-02-28T10:01:50;3.60;99.70
31038;DHT22;17702;47.590;7.666;2023-02-28T10:06:50;3.50;99.30
31038;DHT22;17702;47.590;7.666;2023-02-28T10:09:17;3.60;99.80
31038;DHT22;17702;47.590;7.666;2023-02-28T10:11:45;3.70;99.70
31038;DHT22;17702;47.590;7.666;2023-02-28T10:16:41;3.70;98.80
31038;DHT22;17702;47.590;7.666;2023-02-28T10:19:16;3.80;98.20
31038;DHT22;17702;47.590;7.666;2023-02-28T10:21:47;3.90;98.70
31038;DHT22;17702;47.590;7.666;2023-02-28T10:24:32;3.90;98.00
31038;DHT22;17702;47.590;7.666;2023-02-28T10:27:06;3.80;97.80
31038;DHT22;17702;47.590;7.666;2023-02-28T10:29:36;3.90;98.10
31038;DHT22;17702;47.590;7.666;2023-02-28T10:32:02;4.00;97.80
31038;DHT22;17702;47.590;7.666;2023-02-28T10:34:28;4.00;96.60
31038;DHT22;17702;47.590;7.666;2023-02-28T10:36:54;3.90;97.60
31038;DHT22;17702;47.590;7.666;2023-02-28T10:39:36;4.00;97.30
31038;DHT22;17702;47.590;7.666;2023-02-28T10:42:03;4.00;97.00
31038;DHT22;17702;47.590;7.666;2023-02-28T10:44:28;4.00;97.40
31038;DHT22;17702;47.590;7.666;2023-02-28T10:46:54;4.00;97.40
31038;DHT22;17702;47.590;7.666;2023-02-28T10:49:22;4.10;97.50
31038;DHT22;17702;47.590;7.666;2023-02-28T10:51:49;4.20;96.90
31038;DHT22;17702;47.590;7.666;2023-02-28T10:54:17;4.20;97.00
31038;DHT22;17702;47.590;7.666;2023-02-28T10:56:43;4.20;96.00
31038;DHT22;17702;47.590;7.666;2023-02-28T11:01:44;4.20;95.60
31038;DHT22;17702;47.590;7.666;2023-02-28T11:04:44;4.30;95.40
31038;DHT22;17702;47.590;7.666;2023-02-28T11:07:06;4.40;97.00
31038;DHT22;17702;47.590;7.666;2023-02-28T11:09:41;4.50;95.70
31038;DHT22;17702;47.590;7.666;2023-02-28T11:12:26;4.50;95.70
31038;DHT22;17702;47.590;7.666;2023-02-28T11:14:53;4.40;96.30
31038;DHT22;17702;47.590;7.666;2023-02-28T11:17:23;4.50;95.70
31038;DHT22;17702;47.590;7.666;2023-02-28T11:19:51;4.50;95.90
31038;DHT22;17702;47.590;7.666;2023-02-28T11:22:18;4.60;96.50
31038;DHT22;17702;47.590;7.666;2023-02-28T11:24:45;4.70;94.50
31038;DHT22;17702;47.590;7.666;2023-02-28T11:30:04;4.70;93.90
31038;DHT22;17702;47.590;7.666;2023-02-28T11:32:48;4.70;89.00
31038;DHT22;17702;47.590;7.666;2023-02-28T11:35:15;4.80;86.30
31038;DHT22;17702;47.590;7.666;2023-02-28T11:37:42;4.80;86.00
31038;DHT22;17702;47.590;7.666;2023-02-28T11:40:23;4.80;85.30
31038;DHT22;17702;47.590;7.666;2023-02-28T11:45:38;4.90;88.30
31038;DHT22;17702;47.590;7.666;2023-02-28T11:48:26;5.00;80.30
31038;DHT22;17702;47.590;7.666;2023-02-28T11:51:35;5.00;79.80
31038;DHT22;17702;47.590;7.666;2023-02-28T11:53:50;5.20;86.40
31038;DHT22;17702;47.590;7.666;2023-02-28T11:56:31;5.20;86.10
31038;DHT22;17702;47.590;7.666;2023-02-28T12:04:28;5.30;78.00
31038;DHT22;17702;47.590;7.666;2023-02-28T12:07:16;5.40;74.20
31038;DHT22;17702;47.590;7.666;2023-02-28T12:12:18;5.50;75.70
31038;DHT22;17702;47.590;7.666;2023-02-28T12:14:50;5.50;71.70
31038;DHT22;17702;47.590;7.666;2023-02-28T12:17:38;5.50;72.90
31038;DHT22;17702;47.590;7.666;2023-02-28T12:25:31;5.40;72.20
31038;DHT22;17702;47.590;7.666;2023-02-28T12:28:03;5.50;73.00
31038;DHT22;17702;47.590;7.666;2023-02-28T12:30:30;5.50;71.30
31038;DHT22;17702;47.590;7.666;2023-02-28T12:32:58;5.50;70.30
31038;DHT22;17702;47.590;7.666;2023-02-28T12:35:28;5.50;70.60
31038;DHT22;17702;47.590;7.666;2023-02-28T12:40:27;5.50;68.90
31038;DHT22;17702;47.590;7.666;2023-02-28T12:42:58;5.50;68.80
31038;DHT22;17702;47.590;7.666;2023-02-28T12:45:26;5.50;68.90
31038;DHT22;17702;47.590;7.666;2023-02-28T12:47:57;5.40;68.70
31038;DHT22;17702;47.590;7.666;2023-02-28T12:50:23;5.50;70.50
31038;DHT22;17702;47.590;7.666;2023-02-28T12:53:09;5.50;69.10
31038;DHT22;17702;47.590;7.666;2023-02-28T12:55:41;5.60;68.90
31038;DHT22;17702;47.590;7.666;2023-02-28T12:58:31;5.70;71.30
31038;DHT22;17702;47.590;7.666;2023-02-28T13:10:58;5.90;67.30
31038;DHT22;17702;47.590;7.666;2023-02-28T13:13:25;5.90;67.60
31038;DHT22;17702;47.590;7.666;2023-02-28T13:16:03;5.90;66.90
31038;DHT22;17702;47.590;7.666;2023-02-28T13:18:30;6.00;67.20
31038;DHT22;17702;47.590;7.666;2023-02-28T13:20:56;6.00;65.70
31038;DHT22;17702;47.590;7.666;2023-02-28T13:23:39;5.90;67.20
31038;DHT22;17702;47.590;7.666;2023-02-28T13:26:05;5.90;65.50
31038;DHT22;17702;47.590;7.666;2023-02-28T13:31:15;5.80;65.30
31038;DHT22;17702;47.590;7.666;2023-02-28T13:38:43;6.00;66.90
31038;DHT22;17702;47.590;7.666;2023-02-28T13:46:29;5.80;66.80
31038;DHT22;17702;47.590;7.666;2023-02-28T13:48:54;5.80;64.70
31038;DHT22;17702;47.590;7.666;2023-02-28T13:51:40;5.80;64.10
31038;DHT22;17702;47.590;7.666;2023-02-28T13:54:18;5.80;64.70
31038;DHT22;17702;47.590;7.666;2023-02-28T13:56:48;5.80;65.30
31038;DHT22;17702;47.590;7.666;2023-02-28T13:59:21;5.80;67.20
31038;DHT22;17702;47.590;7.666;2023-02-28T14:02:01;5.80;65.00
31038;DHT22;17702;47.590;7.666;2023-02-28T14:07:05;5.80;64.50
31038;DHT22;17702;47.590;7.666;2023-02-28T14:09:36;5.70;65.00
31038;DHT22;17702;47.590;7.666;2023-02-28T14:17:14;5.80;66.60
31038;DHT22;17702;47.590;7.666;2023-02-28T14:19:41;5.70;64.70
31038;DHT22;17702;47.590;7.666;2023-02-28T14:22:13;5.60;66.40
31038;DHT22;17702;47.590;7.666;2023-02-28T14:29:38;5.70;67.70
31038;DHT22;17702;47.590;7.666;2023-02-28T14:37:27;5.60;68.00
31038;DHT22;17702;47.590;7.666;2023-02-28T14:39:53;5.60;68.20
31038;DHT22;17702;47.590;7.666;2023-02-28T14:42:55;5.70;68.80
31038;DHT22;17702;47.590;7.666;2023-02-28T14:45:19;5.70;66.70
31038;DHT22;17702;47.590;7.666;2023-02-28T14:47:45;5.70;65.80
31038;DHT22;17702;47.590;7.666;2023-02-28T14:50:18;5.60;67.30
31038;DHT22;17702;47.590;7.666;2023-02-28T14:52:44;5.60;65.90
31038;DHT22;17702;47.590;7.666;2023-02-28T14:55:12;5.60;66.60
31038;DHT22;17702;47.590;7.666;2023-02-28T14:57:40;5.50;66.50
31038;DHT22;17702;47.590;7.666;2023-02-28T15:02:36;5.50;67.40
31038;DHT22;17702;47.590;7.666;2023-02-28T15:05:47;5.50;65.50
31038;DHT22;17702;47.590;7.666;2023-02-28T15:07:48;5.50;66.40
31038;DHT22;17702;47.590;7.666;2023-02-28T15:12:39;5.40;66.80
31038;DHT22;17702;47.590;7.666;2023-02-28T15:15:05;5.40;67.60
31038;DHT22;17702;47.590;7.666;2023-02-28T15:17:32;5.40;67.30
31038;DHT22;17702;47.590;7.666;2023-02-28T15:19:57;5.50;66.90
31038;DHT22;17702;47.590;7.666;2023-02-28T15:22:33;5.40;66.80
31038;DHT22;17702;47.590;7.666;2023-02-28T15:25:00;5.40;66.10
31038;DHT22;17702;47.590;7.666;2023-02-28T15:27:28;5.40;67.90
31038;DHT22;17702;47.590;7.666;2023-02-28T15:29:57;5.30;67.30
31038;DHT22;17702;47.590;7.666;2023-02-28T15:32:27;5.20;69.50
31038;DHT22;17702;47.590;7.666;2023-02-28T15:34:53;5.20;67.90
31038;DHT22;17702;47.590;7.666;2023-02-28T15:39:55;5.20;68.90
31038;DHT22;17702;47.590;7.666;2023-02-28T15:42:22;5.20;68.00
31038;DHT22;17702;47.590;7.666;2023-02-28T15:44:48;5.20;68.20
31038;DHT22;17702;47.590;7.666;2023-02-28T15:47:20;5.10;68.20
31038;DHT22;17702;47.590;7.666;2023-02-28T15:50:08;5.20;68.70
31038;DHT22;17702;47.590;7.666;2023-02-28T15:52:39;5.20;69.40
31038;DHT22;17702;47.590;7.666;2023-02-28T15:57:43;5.20;68.00
31038;DHT22;17702;47.590;7.666;2023-02-28T16:00:12;5.10;69.00
31038;DHT22;17702;47.590;7.666;2023-02-28T16:02:38;5.20;67.80
31038;DHT22;17702;47.590;7.666;2023-02-28T16:07:32;5.20;68.50
31038;DHT22;17702;47.590;7.666;2023-02-28T16:09:58;5.20;69.00
31038;DHT22;17702;47.590;7.666;2023-02-28T16:12:28;5.20;69.40
31038;DHT22;17702;47.590;7.666;2023-02-28T16:14:54;5.20;68.70
31038;DHT22;17702;47.590;7.666;2023-02-28T16:17:22;5.20;69.00
31038;DHT22;17702;47.590;7.666;2023-02-28T16:19:47;5.30;67.80
31038;DHT22;17702;47.590;7.666;2023-02-28T16:22:13;5.20;69.00
31038;DHT22;17702;47.590;7.666;2023-02-28T16:24:38;5.20;68.30
31038;DHT22;17702;47.590;7.666;2023-02-28T16:27:05;5.20;67.90
31038;DHT22;17702;47.590;7.666;2023-02-28T16:29:34;5.20;69.40
31038;DHT22;17702;47.590;7.666;2023-02-28T16:32:01;5.10;70.80
31038;DHT22;17702;47.590;7.666;2023-02-28T16:34:27;5.20;70.20
31038;DHT22;17702;47.590;7.666;2023-02-28T16:36:53;5.20;68.60
31038;DHT22;17702;47.590;7.666;2023-02-28T16:39:18;5.20;69.60
31038;DHT22;17702;47.590;7.666;2023-02-28T16:41:48;5.10;69.80
31038;DHT22;17702;47.590;7.666;2023-02-28T16:44:17;5.20;70.20
31038;DHT22;17702;47.590;7.666;2023-02-28T16:46:46;5.00;70.50
31038;DHT22;17702;47.590;7.666;2023-02-28T16:49:11;4.90;69.00
31038;DHT22;17702;47.590;7.666;2023-02-28T16:51:37;4.90;70.40
31038;DHT22;17702;47.590;7.666;2023-02-28T16:54:03;5.00;70.10
31038;DHT22;17702;47.590;7.666;2023-02-28T16:56:29;5.00;70.30
31038;DHT22;17702;47.590;7.666;2023-02-28T16:58:55;5.00;70.00
31038;DHT22;17702;47.590;7.666;2023-02-28T17:01:23;5.00;68.60
31038;DHT22;17702;47.590;7.666;2023-02-28T17:03:48;5.00;68.90
31038;DHT22;17702;47.590;7.666;2023-02-28T17:06:16;5.00;70.40
31038;DHT22;17702;47.590;7.666;2023-02-28T17:08:43;5.00;68.60
31038;DHT22;17702;47.590;7.666;2023-02-28T17:11:08;5.00;69.60
31038;DHT22;17702;47.590;7.666;2023-02-28T17:13:34;4.90;70.80
31038;DHT22;17702;47.590;7.666;2023-02-28T17:15:59;4.80;71.20
31038;DHT22;17702;47.590;7.666;2023-02-28T17:18:25;4.60;71.40
31038;DHT22;17702;47.590;7.666;2023-02-28T17:20:51;4.50;73.00
31038;DHT22;17702;47.590;7.666;2023-02-28T17:23:17;4.50;73.30
31038;DHT22;17702;47.590;7.666;2023-02-28T17:25:43;4.40;74.00
31038;DHT22;17702;47.590;7.666;2023-02-28T17:28:18;4.30;74.50
31038;DHT22;17702;47.590;7.666;2023-02-28T17:30:44;4.30;75.40
31038;DHT22;17702;47.590;7.666;2023-02-28T17:33:12;4.10;76.20
31038;DHT22;17702;47.590;7.666;2023-02-28T17:35:37;4.00;76.80
31038;DHT22;17702;47.590;7.666;2023-02-28T17:38:03;3.90;76.80
31038;DHT22;17702;47.590;7.666;2023-02-28T17:40:28;3.80;79.90
31038;DHT22;17702;47.590;7.666;2023-02-28T17:42:54;3.80;79.70
31038;DHT22;17702;47.590;7.666;2023-02-28T17:45:21;3.70;81.10
31038;DHT22;17702;47.590;7.666;2023-02-28T17:47:48;3.60;82.00
31038;DHT22;17702;47.590;7.666;2023-02-28T17:50:15;3.50;82.80
31038;DHT22;17702;47.590;7.666;2023-02-28T17:52:41;3.20;85.50
31038;DHT22;17702;47.590;7.666;2023-02-28T17:55:08;3.00;86.30
31038;DHT22;17702;47.590;7.666;2023-02-28T17:57:33;3.00;87.20
31038;DHT22;17702;47.590;7.666;2023-02-28T17:59:59;2.90;88.40